sensor_id;sensor_type;location;lat;lon;timestamp;pressure;altitude;pressure_sealevel;temperature;humidity
25130;BME280;13308;50.860;13.664;2023-07-02T05:18:55;95958.97;;;15.75;100.00
25130;BME280;13308;50.860;13.664;2023-07-02T05:21:21;95956.31;;;15.81;100.00
25130;BME280;13308;50.860;13.664;2023-07-02T05:23:47;95966.66;;;15.80;100.00
25130;BME280;13308;50.860;13.664;2023-07-02T05:26:12;95973.19;;;15.77;100.00
25130;BME280;13308;50.860;13.664;2023-07-02T05:28:37;95967.03;;;15.73;100.00
25130;BME280;13308;50.860;13.664;2023-07-02T05:31:02;95967.03;;;15.73;100.00
25130;BME280;13308;50.860;13.664;2023-07-02T05:33:28;95975.97;;;15.77;100.00
25130;BME280;13308;50.860;13.664;2023-07-02T05:35:53;95976.06;;;15.83;100.00
25130;BME280;13308;50.860;13.664;2023-07-02T05:38:18;95970.22;;;15.81;100.00
25130;BME280;13308;50.860;13.664;2023-07-02T05:40:45;95970.97;;;15.81;100.00
25130;BME280;13308;50.860;13.664;2023-07-02T05:43:11;95971.16;;;15.78;100.00
25130;BME280;13308;50.860;13.664;2023-07-02T05:45:36;95978.38;;;15.84;100.00
25130;BME280;13308;50.860;13.664;2023-07-02T05:48:01;95982.34;;;15.92;100.00
25130;BME280;13308;50.860;13.664;2023-07-02T05:50:27;95983.00;;;15.87;100.00
25130;BME280;13308;50.860;13.664;2023-07-02T05:52:52;95978.44;;;15.99;100.00
25130;BME280;13308;50.860;13.664;2023-07-02T05:55:17;95987.63;;;15.90;100.00
25130;BME280;13308;50.860;13.664;2023-07-02T05:57:43;95989.16;;;15.91;100.00
25130;BME280;13308;50.860;13.664;2023-07-02T06:00:08;95991.13;;;16.00;100.00
25130;BME280;13308;50.860;13.664;2023-07-02T06:02:39;95993.19;;;15.90;100.00
25130;BME280;13308;50.860;13.664;2023-07-02T06:05:05;96006.19;;;16.08;100.00
25130;BME280;13308;50.860;13.664;2023-07-02T06:07:30;96009.56;;;16.12;100.00
25130;BME280;13308;50.860;13.664;2023-07-02T06:09:56;96010.69;;;16.05;100.00
25130;BME280;13308;50.860;13.664;2023-07-02T06:12:21;96014.97;;;16.15;100.00
25130;BME280;13308;50.860;13.664;2023-07-02T06:14:47;96020.28;;;16.04;100.00
25130;BME280;13308;50.860;13.664;2023-07-02T06:17:12;96026.44;;;16.08;100.00
25130;BME280;13308;50.860;13.664;2023-07-02T06:19:38;96023.72;;;15.99;100.00
25130;BME280;13308;50.860;13.664;2023-07-02T06:22:03;96012.94;;;15.92;100.00
25130;BME280;13308;50.860;13.664;2023-07-02T06:24:29;96020.66;;;15.97;100.00
25130;BME280;13308;50.860;13.664;2023-07-02T06:26:54;96009.06;;;15.99;100.00
25130;BME280;13308;50.860;13.664;2023-07-02T06:29:21;96011.66;;;16.02;100.00
25130;BME280;13308;50.860;13.664;2023-07-02T06:31:47;96010.94;;;16.16;100.00
25130;BME280;13308;50.860;13.664;2023-07-02T06:34:12;96010.41;;;16.03;100.00
25130;BME280;13308;50.860;13.664;2023-07-02T06:36:37;96012.41;;;16.26;100.00
25130;BME280;13308;50.860;13.664;2023-07-02T06:39:03;96015.97;;;16.03;100.00
25130;BME280;13308;50.860;13.664;2023-07-02T06:41:28;96010.56;;;16.23;100.00
25130;BME280;13308;50.860;13.664;2023-07-02T06:43:53;96000.88;;;16.19;100.00
25130;BME280;13308;50.860;13.664;2023-07-02T06:46:19;96007.69;;;16.18;100.00
25130;BME280;13308;50.860;13.664;2023-07-02T06:48:44;96017.00;;;16.29;100.00
25130;BME280;13308;50.860;13.664;2023-07-02T06:51:10;96021.69;;;16.23;100.00
25130;BME280;13308;50.860;13.664;2023-07-02T06:53:37;96024.31;;;16.50;100.00
25130;BME280;13308;50.860;13.664;2023-07-02T06:56:03;96023.50;;;16.73;100.00
25130;BME280;13308;50.860;13.664;2023-07-02T06:58:28;96033.13;;;17.16;100.00
25130;BME280;13308;50.860;13.664;2023-07-02T07:00:53;96029.22;;;17.22;100.00
25130;BME280;13308;50.860;13.664;2023-07-02T07:03:19;96029.94;;;17.37;100.00
25130;BME280;13308;50.860;13.664;2023-07-02T07:05:44;96032.47;;;17.06;100.00
25130;BME280;13308;50.860;13.664;2023-07-02T07:08:09;96032.25;;;16.95;100.00
25130;BME280;13308;50.860;13.664;2023-07-02T07:10:34;96041.47;;;17.01;100.00
25130;BME280;13308;50.860;13.664;2023-07-02T07:13:03;96036.28;;;16.94;100.00
25130;BME280;13308;50.860;13.664;2023-07-02T07:15:34;96028.94;;;17.20;100.00
25130;BME280;13308;50.860;13.664;2023-07-02T07:18:03;96033.00;;;17.83;100.00
25130;BME280;13308;50.860;13.664;2023-07-02T07:20:29;96051.66;;;17.91;100.00
25130;BME280;13308;50.860;13.664;2023-07-02T07:22:55;96038.47;;;17.92;100.00
25130;BME280;13308;50.860;13.664;2023-07-02T07:25:20;96042.91;;;18.18;100.00
25130;BME280;13308;50.860;13.664;2023-07-02T07:27:46;96043.69;;;18.19;100.00
25130;BME280;13308;50.860;13.664;2023-07-02T07:30:11;96038.13;;;18.59;100.00
25130;BME280;13308;50.860;13.664;2023-07-02T07:32:37;96031.34;;;18.65;100.00
25130;BME280;13308;50.860;13.664;2023-07-02T07:35:02;96037.63;;;18.60;100.00
25130;BME280;13308;50.860;13.664;2023-07-02T07:37:28;96051.72;;;18.71;100.00
25130;BME280;13308;50.860;13.664;2023-07-02T07:39:53;96040.69;;;18.82;100.00
25130;BME280;13308;50.860;13.664;2023-07-02T07:42:18;96039.88;;;18.76;100.00
25130;BME280;13308;50.860;13.664;2023-07-02T07:44:46;96047.69;;;18.72;100.00
25130;BME280;13308;50.860;13.664;2023-07-02T07:47:12;96046.50;;;19.04;100.00
25130;BME280;13308;50.860;13.664;2023-07-02T07:49:37;96048.63;;;19.34;100.00
25130;BME280;13308;50.860;13.664;2023-07-02T07:52:03;96052.00;;;19.75;100.00
25130;BME280;13308;50.860;13.664;2023-07-02T07:54:29;96052.19;;;19.97;100.00
25130;BME280;13308;50.860;13.664;2023-07-02T07:56:54;96061.00;;;21.21;88.15
25130;BME280;13308;50.860;13.664;2023-07-02T07:59:20;96058.75;;;21.64;88.91
25130;BME280;13308;50.860;13.664;2023-07-02T08:01:45;96061.06;;;22.09;79.57
25130;BME280;13308;50.860;13.664;2023-07-02T08:04:12;96059.81;;;23.00;78.71
25130;BME280;13308;50.860;13.664;2023-07-02T08:06:37;96046.81;;;22.92;74.62
25130;BME280;13308;50.860;13.664;2023-07-02T08:09:02;96054.13;;;22.38;80.58
25130;BME280;13308;50.860;13.664;2023-07-02T08:11:28;96058.47;;;23.07;76.28
25130;BME280;13308;50.860;13.664;2023-07-02T08:13:53;96052.66;;;22.94;71.09
25130;BME280;13308;50.860;13.664;2023-07-02T08:16:19;96054.34;;;23.19;71.24
25130;BME280;13308;50.860;13.664;2023-07-02T08:18:44;96059.28;;;23.02;70.87
25130;BME280;13308;50.860;13.664;2023-07-02T08:21:10;96053.53;;;23.70;68.71
25130;BME280;13308;50.860;13.664;2023-07-02T08:23:36;96057.53;;;23.45;69.47
25130;BME280;13308;50.860;13.664;2023-07-02T08:26:01;96055.81;;;23.31;65.50
25130;BME280;13308;50.860;13.664;2023-07-02T08:28:28;96057.94;;;23.14;69.36
25130;BME280;13308;50.860;13.664;2023-07-02T08:30:53;96052.63;;;22.15;74.80
25130;BME280;13308;50.860;13.664;2023-07-02T08:33:18;96039.34;;;22.15;74.35
25130;BME280;13308;50.860;13.664;2023-07-02T08:35:43;96056.13;;;22.54;70.62
25130;BME280;13308;50.860;13.664;2023-07-02T08:38:09;96065.13;;;22.30;66.89
25130;BME280;13308;50.860;13.664;2023-07-02T08:40:34;96059.72;;;22.49;66.50
25130;BME280;13308;50.860;13.664;2023-07-02T08:43:00;96053.63;;;22.34;69.18
25130;BME280;13308;50.860;13.664;2023-07-02T08:45:26;96060.84;;;21.80;69.98
25130;BME280;13308;50.860;13.664;2023-07-02T08:47:51;96067.69;;;22.23;70.60
25130;BME280;13308;50.860;13.664;2023-07-02T08:50:20;96060.78;;;22.46;65.70
25130;BME280;13308;50.860;13.664;2023-07-02T08:52:45;96051.69;;;22.86;69.16
25130;BME280;13308;50.860;13.664;2023-07-02T08:55:11;96064.09;;;22.50;65.66
25130;BME280;13308;50.860;13.664;2023-07-02T08:57:36;96055.75;;;22.85;62.06
25130;BME280;13308;50.860;13.664;2023-07-02T09:00:08;96068.41;;;22.62;66.08
25130;BME280;13308;50.860;13.664;2023-07-02T09:02:34;96056.84;;;22.76;64.60
25130;BME280;13308;50.860;13.664;2023-07-02T09:05:03;96066.34;;;22.68;66.62
25130;BME280;13308;50.860;13.664;2023-07-02T09:07:30;96062.97;;;22.69;66.75
25130;BME280;13308;50.860;13.664;2023-07-02T09:09:55;96077.72;;;23.03;62.73
25130;BME280;13308;50.860;13.664;2023-07-02T09:12:25;96080.81;;;22.94;65.26
25130;BME280;13308;50.860;13.664;2023-07-02T09:15:01;96079.63;;;23.30;60.22
25130;BME280;13308;50.860;13.664;2023-07-02T09:17:32;96079.44;;;23.57;58.77
25130;BME280;13308;50.860;13.664;2023-07-02T09:19:59;96076.69;;;22.95;58.00
25130;BME280;13308;50.860;13.664;2023-07-02T09:22:30;96065.75;;;22.80;61.15
25130;BME280;13308;50.860;13.664;2023-07-02T09:24:59;96073.06;;;23.11;57.29
25130;BME280;13308;50.860;13.664;2023-07-02T09:30:06;96088.66;;;23.12;54.21
25130;BME280;13308;50.860;13.664;2023-07-02T09:32:31;96071.41;;;23.37;53.90
25130;BME280;13308;50.860;13.664;2023-07-02T09:34:58;96073.88;;;23.46;54.65
25130;BME280;13308;50.860;13.664;2023-07-02T09:37:23;96074.41;;;23.80;55.70
25130;BME280;13308;50.860;13.664;2023-07-02T09:39:50;96069.72;;;23.18;53.38
25130;BME280;13308;50.860;13.664;2023-07-02T09:42:17;96075.63;;;23.55;54.48
25130;BME280;13308;50.860;13.664;2023-07-02T09:44:45;96081.94;;;23.26;52.23
25130;BME280;13308;50.860;13.664;2023-07-02T09:47:11;96090.59;;;23.39;52.74
25130;BME280;13308;50.860;13.664;2023-07-02T09:49:39;96083.34;;;22.97;51.81
25130;BME280;13308;50.860;13.664;2023-07-02T09:52:06;96089.03;;;23.38;53.81
25130;BME280;13308;50.860;13.664;2023-07-02T09:54:32;96084.00;;;23.25;51.64
25130;BME280;13308;50.860;13.664;2023-07-02T09:56:58;96084.25;;;23.68;50.90
25130;BME280;13308;50.860;13.664;2023-07-02T09:59:24;96088.50;;;23.45;50.95
25130;BME280;13308;50.860;13.664;2023-07-02T10:01:50;96089.56;;;23.77;50.89
25130;BME280;13308;50.860;13.664;2023-07-02T10:04:17;96099.50;;;24.48;51.26
25130;BME280;13308;50.860;13.664;2023-07-02T10:06:50;96095.41;;;24.73;49.14
25130;BME280;13308;50.860;13.664;2023-07-02T10:09:21;96087.13;;;24.99;47.87
25130;BME280;13308;50.860;13.664;2023-07-02T10:11:47;96095.28;;;24.84;46.91
25130;BME280;13308;50.860;13.664;2023-07-02T10:14:12;96087.66;;;25.40;49.14
25130;BME280;13308;50.860;13.664;2023-07-02T10:16:52;96096.59;;;24.83;47.72
25130;BME280;13308;50.860;13.664;2023-07-02T10:19:17;96095.53;;;24.62;49.03
25130;BME280;13308;50.860;13.664;2023-07-02T10:21:43;96090.75;;;24.22;49.09
25130;BME280;13308;50.860;13.664;2023-07-02T10:24:16;96084.91;;;23.44;50.76
25130;BME280;13308;50.860;13.664;2023-07-02T10:26:55;96094.59;;;23.03;49.54
25130;BME280;13308;50.860;13.664;2023-07-02T10:29:23;96099.94;;;23.01;50.93
25130;BME280;13308;50.860;13.664;2023-07-02T10:31:50;96090.97;;;24.00;49.86
25130;BME280;13308;50.860;13.664;2023-07-02T10:34:16;96090.53;;;24.20;49.46
25130;BME280;13308;50.860;13.664;2023-07-02T10:36:41;96081.03;;;24.47;50.30
25130;BME280;13308;50.860;13.664;2023-07-02T10:39:06;96092.63;;;24.91;50.11
25130;BME280;13308;50.860;13.664;2023-07-02T10:41:34;96102.22;;;25.25;49.36
25130;BME280;13308;50.860;13.664;2023-07-02T10:44:06;96089.50;;;23.82;50.50
25130;BME280;13308;50.860;13.664;2023-07-02T10:46:32;96093.84;;;23.89;51.29
25130;BME280;13308;50.860;13.664;2023-07-02T10:48:57;96091.56;;;23.47;52.46
25130;BME280;13308;50.860;13.664;2023-07-02T10:51:23;96087.91;;;23.06;52.92
25130;BME280;13308;50.860;13.664;2023-07-02T10:53:59;96086.09;;;23.19;53.06
25130;BME280;13308;50.860;13.664;2023-07-02T10:56:26;96086.00;;;23.36;52.09
25130;BME280;13308;50.860;13.664;2023-07-02T10:58:53;96090.38;;;23.31;54.41
25130;BME280;13308;50.860;13.664;2023-07-02T11:01:26;96082.78;;;23.10;53.07
25130;BME280;13308;50.860;13.664;2023-07-02T11:04:02;96084.56;;;23.18;53.91
25130;BME280;13308;50.860;13.664;2023-07-02T11:06:29;96084.81;;;23.61;55.15
25130;BME280;13308;50.860;13.664;2023-07-02T11:08:56;96093.97;;;24.07;51.51
25130;BME280;13308;50.860;13.664;2023-07-02T11:11:22;96083.00;;;24.28;52.31
25130;BME280;13308;50.860;13.664;2023-07-02T11:13:49;96088.78;;;24.41;51.27
25130;BME280;13308;50.860;13.664;2023-07-02T11:16:25;96098.97;;;24.49;49.51
25130;BME280;13308;50.860;13.664;2023-07-02T11:19:06;96103.47;;;24.63;50.98
25130;BME280;13308;50.860;13.664;2023-07-02T11:21:35;96091.78;;;23.49;50.48
25130;BME280;13308;50.860;13.664;2023-07-02T11:24:07;96094.97;;;23.75;52.04
25130;BME280;13308;50.860;13.664;2023-07-02T11:26:39;96098.66;;;23.59;52.10
25130;BME280;13308;50.860;13.664;2023-07-02T11:29:11;96110.00;;;23.83;51.90
25130;BME280;13308;50.860;13.664;2023-07-02T11:31:37;96110.63;;;23.19;52.49
25130;BME280;13308;50.860;13.664;2023-07-02T11:34:13;96113.81;;;22.88;53.40
25130;BME280;13308;50.860;13.664;2023-07-02T11:36:38;96117.59;;;22.96;54.63
25130;BME280;13308;50.860;13.664;2023-07-02T11:39:03;96107.88;;;22.97;54.27
25130;BME280;13308;50.860;13.664;2023-07-02T11:41:37;96112.69;;;23.64;53.94
25130;BME280;13308;50.860;13.664;2023-07-02T11:44:03;96107.38;;;23.96;54.14
25130;BME280;13308;50.860;13.664;2023-07-02T11:46:28;96110.25;;;23.90;53.06
25130;BME280;13308;50.860;13.664;2023-07-02T11:48:53;96112.50;;;23.00;55.75
25130;BME280;13308;50.860;13.664;2023-07-02T11:51:19;96111.69;;;23.05;56.30
25130;BME280;13308;50.860;13.664;2023-07-02T11:53:44;96115.84;;;22.93;56.39
25130;BME280;13308;50.860;13.664;2023-07-02T11:56:09;96114.00;;;23.06;58.20
25130;BME280;13308;50.860;13.664;2023-07-02T11:58:34;96125.28;;;22.95;56.39
25130;BME280;13308;50.860;13.664;2023-07-02T12:01:00;96128.66;;;22.83;56.81
25130;BME280;13308;50.860;13.664;2023-07-02T12:03:25;96132.56;;;22.41;57.29
25130;BME280;13308;50.860;13.664;2023-07-02T12:05:50;96128.75;;;22.11;58.09
25130;BME280;13308;50.860;13.664;2023-07-02T12:08:16;96133.31;;;22.31;59.06
25130;BME280;13308;50.860;13.664;2023-07-02T12:10:42;96126.69;;;22.34;60.59
25130;BME280;13308;50.860;13.664;2023-07-02T12:13:07;96132.81;;;21.94;60.56
25130;BME280;13308;50.860;13.664;2023-07-02T12:15:32;96125.91;;;21.95;60.18
25130;BME280;13308;50.860;13.664;2023-07-02T12:17:58;96122.34;;;21.89;62.35
25130;BME280;13308;50.860;13.664;2023-07-02T12:20:23;96122.88;;;21.87;62.20
25130;BME280;13308;50.860;13.664;2023-07-02T12:22:48;96123.63;;;22.21;63.92
25130;BME280;13308;50.860;13.664;2023-07-02T12:25:14;96125.84;;;22.88;60.50
25130;BME280;13308;50.860;13.664;2023-07-02T12:27:39;96124.31;;;22.82;59.92
25130;BME280;13308;50.860;13.664;2023-07-02T12:30:05;96126.97;;;23.31;60.38
25130;BME280;13308;50.860;13.664;2023-07-02T12:32:30;96127.16;;;22.71;61.88
25130;BME280;13308;50.860;13.664;2023-07-02T12:34:56;96121.84;;;22.23;62.98
25130;BME280;13308;50.860;13.664;2023-07-02T12:37:21;96131.03;;;22.18;61.59
25130;BME280;13308;50.860;13.664;2023-07-02T12:39:47;96151.22;;;22.17;63.38
25130;BME280;13308;50.860;13.664;2023-07-02T12:42:12;96147.59;;;22.82;62.30
25130;BME280;13308;50.860;13.664;2023-07-02T12:44:37;96136.72;;;23.14;59.07
25130;BME280;13308;50.860;13.664;2023-07-02T12:47:03;96137.47;;;23.25;58.43
25130;BME280;13308;50.860;13.664;2023-07-02T12:49:28;96137.22;;;23.29;57.35
25130;BME280;13308;50.860;13.664;2023-07-02T12:51:53;96129.84;;;23.61;57.83
25130;BME280;13308;50.860;13.664;2023-07-02T12:54:19;96143.47;;;24.86;52.54
25130;BME280;13308;50.860;13.664;2023-07-02T12:56:44;96132.25;;;25.47;53.13
25130;BME280;13308;50.860;13.664;2023-07-02T12:59:09;96154.84;;;25.23;50.83
25130;BME280;13308;50.860;13.664;2023-07-02T13:01:34;96135.41;;;24.71;50.67
25130;BME280;13308;50.860;13.664;2023-07-02T13:04:00;96140.03;;;25.17;53.69
25130;BME280;13308;50.860;13.664;2023-07-02T13:06:26;96140.34;;;25.56;52.90
25130;BME280;13308;50.860;13.664;2023-07-02T13:08:52;96145.66;;;25.41;49.73
25130;BME280;13308;50.860;13.664;2023-07-02T13:11:18;96142.31;;;25.42;50.36
25130;BME280;13308;50.860;13.664;2023-07-02T13:13:43;96151.03;;;25.63;49.04
25130;BME280;13308;50.860;13.664;2023-07-02T13:16:08;96143.53;;;25.47;49.68
25130;BME280;13308;50.860;13.664;2023-07-02T13:18:34;96142.13;;;24.39;51.55
25130;BME280;13308;50.860;13.664;2023-07-02T13:20:59;96146.53;;;24.64;52.37
25130;BME280;13308;50.860;13.664;2023-07-02T13:23:25;96139.38;;;24.28;51.05
25130;BME280;13308;50.860;13.664;2023-07-02T13:25:50;96139.31;;;23.69;51.74
25130;BME280;13308;50.860;13.664;2023-07-02T13:28:16;96149.44;;;23.37;52.35
25130;BME280;13308;50.860;13.664;2023-07-02T13:30:41;96143.81;;;22.41;54.39
25130;BME280;13308;50.860;13.664;2023-07-02T13:33:07;96142.03;;;22.22;56.43
25130;BME280;13308;50.860;13.664;2023-07-02T13:35:32;96147.63;;;22.33;56.32
25130;BME280;13308;50.860;13.664;2023-07-02T13:37:57;96152.09;;;23.02;55.80
25130;BME280;13308;50.860;13.664;2023-07-02T13:40:25;96146.53;;;23.59;53.03
25130;BME280;13308;50.860;13.664;2023-07-02T13:42:50;96146.13;;;23.79;51.28
25130;BME280;13308;50.860;13.664;2023-07-02T13:45:15;96149.59;;;24.90;48.95
25130;BME280;13308;50.860;13.664;2023-07-02T13:47:41;96156.34;;;26.22;47.53
25130;BME280;13308;50.860;13.664;2023-07-02T13:50:06;96165.03;;;26.87;46.00
25130;BME280;13308;50.860;13.664;2023-07-02T13:52:31;96177.28;;;27.47;43.87
25130;BME280;13308;50.860;13.664;2023-07-02T13:54:57;96172.88;;;25.81;45.54
25130;BME280;13308;50.860;13.664;2023-07-02T13:57:24;96165.03;;;24.59;47.50
25130;BME280;13308;50.860;13.664;2023-07-02T13:59:49;96158.00;;;24.07;47.63
25130;BME280;13308;50.860;13.664;2023-07-02T14:02:15;96161.75;;;23.80;49.41
25130;BME280;13308;50.860;13.664;2023-07-02T14:04:40;96161.88;;;24.04;51.78
25130;BME280;13308;50.860;13.664;2023-07-02T14:07:06;96166.22;;;23.59;50.85
25130;BME280;13308;50.860;13.664;2023-07-02T14:09:31;96155.41;;;23.17;52.15
25130;BME280;13308;50.860;13.664;2023-07-02T14:11:56;96162.91;;;22.87;53.23
25130;BME280;13308;50.860;13.664;2023-07-02T14:14:22;96166.75;;;22.78;55.95
25130;BME280;13308;50.860;13.664;2023-07-02T14:16:47;96177.03;;;22.32;54.79
25130;BME280;13308;50.860;13.664;2023-07-02T14:19:12;96176.25;;;22.20;55.00
25130;BME280;13308;50.860;13.664;2023-07-02T14:21:38;96173.66;;;23.56;53.22
25130;BME280;13308;50.860;13.664;2023-07-02T14:24:03;96174.19;;;24.36;53.05
25130;BME280;13308;50.860;13.664;2023-07-02T14:26:29;96171.22;;;24.58;50.63
25130;BME280;13308;50.860;13.664;2023-07-02T14:28:55;96167.72;;;24.11;52.72
25130;BME280;13308;50.860;13.664;2023-07-02T14:31:20;96166.00;;;23.57;nan
25130;BME280;13308;50.860;13.664;2023-07-02T14:33:46;96175.75;;;23.50;52.32
25130;BME280;13308;50.860;13.664;2023-07-02T14:36:11;96178.44;;;23.10;53.98
25130;BME280;13308;50.860;13.664;2023-07-02T14:38:37;96164.44;;;22.88;53.70
25130;BME280;13308;50.860;13.664;2023-07-02T14:41:02;96166.22;;;22.96;56.01
25130;BME280;13308;50.860;13.664;2023-07-02T14:43:29;96173.66;;;22.72;54.88
25130;BME280;13308;50.860;13.664;2023-07-02T14:45:58;96170.63;;;22.59;55.21
25130;BME280;13308;50.860;13.664;2023-07-02T14:48:24;96170.31;;;22.90;53.43
25130;BME280;13308;50.860;13.664;2023-07-02T14:51:00;96178.25;;;22.86;55.10
25130;BME280;13308;50.860;13.664;2023-07-02T14:53:27;96180.56;;;22.82;55.25
25130;BME280;13308;50.860;13.664;2023-07-02T14:55:55;96175.25;;;22.62;54.51
25130;BME280;13308;50.860;13.664;2023-07-02T14:58:20;96179.06;;;22.42;54.01
25130;BME280;13308;50.860;13.664;2023-07-02T15:00:47;96175.47;;;22.14;54.71
25130;BME280;13308;50.860;13.664;2023-07-02T15:03:14;96184.41;;;22.24;54.51
25130;BME280;13308;50.860;13.664;2023-07-02T15:05:40;96172.94;;;22.49;55.86
25130;BME280;13308;50.860;13.664;2023-07-02T15:08:09;96178.81;;;22.68;53.88
25130;BME280;13308;50.860;13.664;2023-07-02T15:10:35;96172.78;;;23.78;53.39
25130;BME280;13308;50.860;13.664;2023-07-02T15:13:03;96174.97;;;23.50;51.88
25130;BME280;13308;50.860;13.664;2023-07-02T15:15:28;96174.53;;;23.35;50.76
25130;BME280;13308;50.860;13.664;2023-07-02T15:17:53;96171.91;;;23.48;51.33
25130;BME280;13308;50.860;13.664;2023-07-02T15:20:18;96183.53;;;24.20;50.97
25130;BME280;13308;50.860;13.664;2023-07-02T15:22:44;96201.59;;;24.70;47.22
25130;BME280;13308;50.860;13.664;2023-07-02T15:25:09;96186.16;;;24.77;48.59
25130;BME280;13308;50.860;13.664;2023-07-02T15:27:35;96197.22;;;24.05;46.54
25130;BME280;13308;50.860;13.664;2023-07-02T15:30:00;96195.66;;;23.63;47.94
25130;BME280;13308;50.860;13.664;2023-07-02T15:32:25;96193.47;;;23.40;48.58
25130;BME280;13308;50.860;13.664;2023-07-02T15:34:50;96184.66;;;24.06;50.19
25130;BME280;13308;50.860;13.664;2023-07-02T15:37:17;96193.22;;;24.59;48.42
25130;BME280;13308;50.860;13.664;2023-07-02T15:39:42;96200.38;;;24.66;48.59
25130;BME280;13308;50.860;13.664;2023-07-02T15:42:08;96193.97;;;23.95;48.02
25130;BME280;13308;50.860;13.664;2023-07-02T15:44:33;96199.69;;;23.73;49.51
25130;BME280;13308;50.860;13.664;2023-07-02T15:46:59;96193.88;;;23.55;49.64
25130;BME280;13308;50.860;13.664;2023-07-02T15:49:25;96196.50;;;23.42;49.80
25130;BME280;13308;50.860;13.664;2023-07-02T15:51:51;96196.72;;;23.55;49.68
25130;BME280;13308;50.860;13.664;2023-07-02T15:54:16;96196.28;;;23.91;49.04
25130;BME280;13308;50.860;13.664;2023-07-02T15:56:42;96197.31;;;24.64;49.74
25130;BME280;13308;50.860;13.664;2023-07-02T15:59:07;96197.47;;;25.01;47.61
25130;BME280;13308;50.860;13.664;2023-07-02T16:01:34;96207.09;;;25.11;46.77
25130;BME280;13308;50.860;13.664;2023-07-02T16:04:00;96203.41;;;24.68;48.60
25130;BME280;13308;50.860;13.664;2023-07-02T16:06:26;96209.28;;;24.99;47.55
25130;BME280;13308;50.860;13.664;2023-07-02T16:08:57;96217.13;;;25.36;46.03
25130;BME280;13308;50.860;13.664;2023-07-02T16:11:23;96216.66;;;25.32;47.66
25130;BME280;13308;50.860;13.664;2023-07-02T16:13:49;96200.03;;;24.99;47.13
25130;BME280;13308;50.860;13.664;2023-07-02T16:16:15;96209.13;;;24.27;46.69
25130;BME280;13308;50.860;13.664;2023-07-02T16:18:41;96199.84;;;23.92;49.17
25130;BME280;13308;50.860;13.664;2023-07-02T16:21:06;96207.22;;;23.49;49.86
25130;BME280;13308;50.860;13.664;2023-07-02T16:23:32;96195.13;;;23.59;49.69
25130;BME280;13308;50.860;13.664;2023-07-02T16:26:04;96198.00;;;23.54;50.95
25130;BME280;13308;50.860;13.664;2023-07-02T16:28:31;96204.25;;;23.25;51.14
25130;BME280;13308;50.860;13.664;2023-07-02T16:30:57;96202.75;;;23.02;50.80
25130;BME280;13308;50.860;13.664;2023-07-02T16:33:22;96209.69;;;22.95;52.73
25130;BME280;13308;50.860;13.664;2023-07-02T16:35:48;96211.19;;;23.07;52.17
25130;BME280;13308;50.860;13.664;2023-07-02T16:38:13;96210.69;;;22.92;51.89
25130;BME280;13308;50.860;13.664;2023-07-02T16:40:39;96212.22;;;23.04;52.41
25130;BME280;13308;50.860;13.664;2023-07-02T16:43:04;96211.00;;;22.67;53.01
25130;BME280;13308;50.860;13.664;2023-07-02T16:45:30;96215.84;;;22.61;52.57
25130;BME280;13308;50.860;13.664;2023-07-02T16:47:55;96213.06;;;22.66;53.71
25130;BME280;13308;50.860;13.664;2023-07-02T16:50:20;96210.00;;;22.64;53.29
25130;BME280;13308;50.860;13.664;2023-07-02T16:52:46;96210.97;;;22.28;54.63
25130;BME280;13308;50.860;13.664;2023-07-02T16:55:11;96204.84;;;22.24;53.88
25130;BME280;13308;50.860;13.664;2023-07-02T16:57:37;96207.63;;;22.02;56.36
25130;BME280;13308;50.860;13.664;2023-07-02T17:00:03;96219.91;;;22.10;54.57
25130;BME280;13308;50.860;13.664;2023-07-02T17:02:30;96209.44;;;22.11;54.90
25130;BME280;13308;50.860;13.664;2023-07-02T17:04:56;96212.25;;;22.11;55.65
25130;BME280;13308;50.860;13.664;2023-07-02T17:07:21;96220.69;;;22.11;55.78
25130;BME280;13308;50.860;13.664;2023-07-02T17:09:46;96221.19;;;22.04;55.36
25130;BME280;13308;50.860;13.664;2023-07-02T17:12:17;96230.13;;;22.19;54.86
25130;BME280;13308;50.860;13.664;2023-07-02T17:14:45;96222.22;;;22.23;54.34
25130;BME280;13308;50.860;13.664;2023-07-02T17:17:14;96224.53;;;22.35;55.11
25130;BME280;13308;50.860;13.664;2023-07-02T17:19:45;96229.38;;;22.24;54.84
25130;BME280;13308;50.860;13.664;2023-07-02T17:22:13;96228.56;;;22.07;55.39
25130;BME280;13308;50.860;13.664;2023-07-02T17:24:41;96223.19;;;21.87;55.99
25130;BME280;13308;50.860;13.664;2023-07-02T17:27:08;96215.00;;;21.89;57.04
25130;BME280;13308;50.860;13.664;2023-07-02T17:29:34;96227.81;;;21.90;58.31
25130;BME280;13308;50.860;13.664;2023-07-02T17:32:01;96228.31;;;21.88;56.03
25130;BME280;13308;50.860;13.664;2023-07-02T17:36:56;96225.69;;;21.68;56.33
25130;BME280;13308;50.860;13.664;2023-07-02T17:39:21;96230.28;;;21.77;56.93
25130;BME280;13308;50.860;13.664;2023-07-02T17:41:48;96234.44;;;21.98;56.22
25130;BME280;13308;50.860;13.664;2023-07-02T17:44:15;96234.72;;;22.16;56.35
25130;BME280;13308;50.860;13.664;2023-07-02T17:46:41;96232.16;;;22.13;55.95
25130;BME280;13308;50.860;13.664;2023-07-02T17:49:07;96228.84;;;21.98;56.83
25130;BME280;13308;50.860;13.664;2023-07-02T17:51:34;96220.13;;;21.85;55.70
25130;BME280;13308;50.860;13.664;2023-07-02T17:53:59;96223.88;;;21.65;56.44
25130;BME280;13308;50.860;13.664;2023-07-02T17:56:25;96217.97;;;21.52;57.67
25130;BME280;13308;50.860;13.664;2023-07-02T17:58:52;96219.44;;;21.48;57.02
25130;BME280;13308;50.860;13.664;2023-07-02T18:01:18;96220.59;;;21.14;58.10
25130;BME280;13308;50.860;13.664;2023-07-02T18:03:43;96216.72;;;21.06;58.70
25130;BME280;13308;50.860;13.664;2023-07-02T18:06:09;96232.00;;;21.05;59.36